sensor_id;sensor_type;location;lat;lon;timestamp;temperature;humidity
61841;DHT22;47773;53.174;6.614;2022-12-07T00:01:11;4.60;99.90
61841;DHT22;47773;53.174;6.614;2022-12-07T00:03:38;4.70;99.90
61841;DHT22;47773;53.174;6.614;2022-12-07T00:06:05;4.70;99.90
61841;DHT22;47773;53.174;6.614;2022-12-07T00:08:32;4.70;99.90
61841;DHT22;47773;53.174;6.614;2022-12-07T00:11:09;4.70;99.90
61841;DHT22;47773;53.174;6.614;2022-12-07T00:13:36;4.80;99.90
61841;DHT22;47773;53.174;6.614;2022-12-07T00:16:10;4.70;99.90
61841;DHT22;47773;53.174;6.614;2022-12-07T00:18:37;4.70;99.90
61841;DHT22;47773;53.174;6.614;2022-12-07T00:21:05;4.70;99.90
61841;DHT22;47773;53.174;6.614;2022-12-07T00:23:32;4.70;99.90
61841;DHT22;47773;53.174;6.614;2022-12-07T00:26:25;4.70;99.90
61841;DHT22;47773;53.174;6.614;2022-12-07T00:28:53;4.80;99.90
61841;DHT22;47773;53.174;6.614;2022-12-07T00:31:21;4.80;99.90
61841;DHT22;47773;53.174;6.614;2022-12-07T00:33:47;4.80;99.90
61841;DHT22;47773;53.174;6.614;2022-12-07T00:36:16;4.80;99.90
61841;DHT22;47773;53.174;6.614;2022-12-07T00:38:42;4.80;99.90
61841;DHT22;47773;53.174;6.614;2022-12-07T00:41:14;4.70;99.90
61841;DHT22;47773;53.174;6.614;2022-12-07T00:43:41;4.80;99.90
61841;DHT22;47773;53.174;6.614;2022-12-07T00:46:08;4.80;99.90
61841;DHT22;47773;53.174;6.614;2022-12-07T00:48:34;4.70;99.90
61841;DHT22;47773;53.174;6.614;2022-12-07T00:51:00;4.70;99.90
61841;DHT22;47773;53.174;6.614;2022-12-07T00:53:27;4.80;99.90
61841;DHT22;47773;53.174;6.614;2022-12-07T00:55:52;4.70;99.90
61841;DHT22;47773;53.174;6.614;2022-12-07T00:58:18;4.70;99.90
61841;DHT22;47773;53.174;6.614;2022-12-07T01:00:44;4.80;99.90
61841;DHT22;47773;53.174;6.614;2022-12-07T01:03:12;4.80;99.90
61841;DHT22;47773;53.174;6.614;2022-12-07T01:05:39;4.80;99.90
61841;DHT22;47773;53.174;6.614;2022-12-07T01:08:05;4.80;99.90
61841;DHT22;47773;53.174;6.614;2022-12-07T01:10:31;4.90;99.90
61841;DHT22;47773;53.174;6.614;2022-12-07T01:12:58;4.90;99.90
61841;DHT22;47773;53.174;6.614;2022-12-07T01:15:25;4.90;99.90
61841;DHT22;47773;53.174;6.614;2022-12-07T01:17:50;4.90;99.90
61841;DHT22;47773;53.174;6.614;2022-12-07T01:20:16;4.90;99.90
61841;DHT22;47773;53.174;6.614;2022-12-07T01:22:43;5.00;99.90
61841;DHT22;47773;53.174;6.614;2022-12-07T01:25:10;5.00;99.90
61841;DHT22;47773;53.174;6.614;2022-12-07T01:27:36;5.00;99.90
61841;DHT22;47773;53.174;6.614;2022-12-07T01:30:03;5.00;99.90
61841;DHT22;47773;53.174;6.614;2022-12-07T01:32:29;5.00;99.90
61841;DHT22;47773;53.174;6.614;2022-12-07T01:34:55;5.00;99.90
61841;DHT22;47773;53.174;6.614;2022-12-07T01:37:21;5.10;99.90
61841;DHT22;47773;53.174;6.614;2022-12-07T01:39:53;5.00;99.90
61841;DHT22;47773;53.174;6.614;2022-12-07T01:42:19;5.10;99.90
61841;DHT22;47773;53.174;6.614;2022-12-07T01:47:56;5.10;99.90
61841;DHT22;47773;53.174;6.614;2022-12-07T01:50:25;5.20;99.90
61841;DHT22;47773;53.174;6.614;2022-12-07T01:52:54;5.10;99.90
61841;DHT22;47773;53.174;6.614;2022-12-07T01:55:21;5.20;99.90
61841;DHT22;47773;53.174;6.614;2022-12-07T01:57:52;5.20;99.90
61841;DHT22;47773;53.174;6.614;2022-12-07T02:00:19;5.20;99.90
61841;DHT22;47773;53.174;6.614;2022-12-07T02:02:55;5.20;99.90
61841;DHT22;47773;53.174;6.614;2022-12-07T02:05:24;5.20;99.90
61841;DHT22;47773;53.174;6.614;2022-12-07T02:07:52;5.20;99.90
61841;DHT22;47773;53.174;6.614;2022-12-07T02:10:27;5.20;99.90
61841;DHT22;47773;53.174;6.614;2022-12-07T02:13:04;5.20;99.90
61841;DHT22;47773;53.174;6.614;2022-12-07T02:18:25;5.20;99.90
61841;DHT22;47773;53.174;6.614;2022-12-07T02:24:15;5.10;99.90
61841;DHT22;47773;53.174;6.614;2022-12-07T02:29:39;5.10;99.90
61841;DHT22;47773;53.174;6.614;2022-12-07T02:32:15;5.00;99.90
61841;DHT22;47773;53.174;6.614;2022-12-07T02:40:18;4.90;99.90
61841;DHT22;47773;53.174;6.614;2022-12-07T02:42:58;4.90;99.90
61841;DHT22;47773;53.174;6.614;2022-12-07T02:45:27;4.90;99.90
61841;DHT22;47773;53.174;6.614;2022-12-07T02:47:56;4.90;99.90
61841;DHT22;47773;53.174;6.614;2022-12-07T02:50:24;4.80;99.90
61841;DHT22;47773;53.174;6.614;2022-12-07T02:52:50;4.80;99.90
61841;DHT22;47773;53.174;6.614;2022-12-07T02:55:18;4.80;99.90
61841;DHT22;47773;53.174;6.614;2022-12-07T02:57:51;4.80;99.90
61841;DHT22;47773;53.174;6.614;2022-12-07T03:00:19;4.90;99.90
61841;DHT22;47773;53.174;6.614;2022-12-07T03:02:50;4.80;99.90
61841;DHT22;47773;53.174;6.614;2022-12-07T03:13:24;4.90;99.90
61841;DHT22;47773;53.174;6.614;2022-12-07T03:18:39;4.90;99.90
61841;DHT22;47773;53.174;6.614;2022-12-07T03:21:10;4.90;99.90
61841;DHT22;47773;53.174;6.614;2022-12-07T03:23:38;4.90;99.90
61841;DHT22;47773;53.174;6.614;2022-12-07T03:26:08;4.80;99.90
61841;DHT22;47773;53.174;6.614;2022-12-07T03:28:39;4.80;99.90
61841;DHT22;47773;53.174;6.614;2022-12-07T03:31:23;4.90;99.90
61841;DHT22;47773;53.174;6.614;2022-12-07T03:36:28;4.90;99.90
61841;DHT22;47773;53.174;6.614;2022-12-07T03:39:06;4.90;99.90
61841;DHT22;47773;53.174;6.614;2022-12-07T03:41:35;4.90;99.90
61841;DHT22;47773;53.174;6.614;2022-12-07T03:44:02;4.90;99.90
61841;DHT22;47773;53.174;6.614;2022-12-07T03:49:25;5.00;99.90
61841;DHT22;47773;53.174;6.614;2022-12-07T03:54:38;5.00;99.90
61841;DHT22;47773;53.174;6.614;2022-12-07T03:57:06;5.00;99.90
61841;DHT22;47773;53.174;6.614;2022-12-07T03:59:33;5.00;99.90
61841;DHT22;47773;53.174;6.614;2022-12-07T04:02:03;5.00;99.90
61841;DHT22;47773;53.174;6.614;2022-12-07T04:04:30;5.00;99.90
61841;DHT22;47773;53.174;6.614;2022-12-07T04:06:56;5.00;99.90
61841;DHT22;47773;53.174;6.614;2022-12-07T04:09:21;5.00;99.90
61841;DHT22;47773;53.174;6.614;2022-12-07T04:11:47;5.00;99.90
61841;DHT22;47773;53.174;6.614;2022-12-07T04:14:13;4.90;99.90
61841;DHT22;47773;53.174;6.614;2022-12-07T04:16:49;4.90;99.90
61841;DHT22;47773;53.174;6.614;2022-12-07T04:19:17;4.90;99.90
61841;DHT22;47773;53.174;6.614;2022-12-07T04:21:43;4.90;99.90
61841;DHT22;47773;53.174;6.614;2022-12-07T04:24:09;4.90;99.90
61841;DHT22;47773;53.174;6.614;2022-12-07T04:26:35;4.80;99.90
61841;DHT22;47773;53.174;6.614;2022-12-07T04:29:01;4.80;99.90
61841;DHT22;47773;53.174;6.614;2022-12-07T04:31:26;4.80;99.90
61841;DHT22;47773;53.174;6.614;2022-12-07T04:33:52;4.80;99.90
61841;DHT22;47773;53.174;6.614;2022-12-07T04:36:17;4.80;99.90
61841;DHT22;47773;53.174;6.614;2022-12-07T04:38:45;4.80;99.90
61841;DHT22;47773;53.174;6.614;2022-12-07T04:41:10;4.80;99.90
61841;DHT22;47773;53.174;6.614;2022-12-07T04:43:37;4.80;99.90
61841;DHT22;47773;53.174;6.614;2022-12-07T04:46:03;4.80;99.90
61841;DHT22;47773;53.174;6.614;2022-12-07T04:48:29;4.70;99.90
61841;DHT22;47773;53.174;6.614;2022-12-07T04:50:55;4.70;99.90
61841;DHT22;47773;53.174;6.614;2022-12-07T04:53:20;4.70;99.90
61841;DHT22;47773;53.174;6.614;2022-12-07T04:55:46;4.70;99.90
61841;DHT22;47773;53.174;6.614;2022-12-07T04:58:12;4.70;99.90
61841;DHT22;47773;53.174;6.614;2022-12-07T05:00:38;4.80;99.90
61841;DHT22;47773;53.174;6.614;2022-12-07T05:03:04;4.80;99.90
61841;DHT22;47773;53.174;6.614;2022-12-07T05:05:30;4.70;99.90
61841;DHT22;47773;53.174;6.614;2022-12-07T05:07:55;4.70;99.90
61841;DHT22;47773;53.174;6.614;2022-12-07T05:10:21;4.70;99.90
61841;DHT22;47773;53.174;6.614;2022-12-07T05:12:47;4.60;99.90
61841;DHT22;47773;53.174;6.614;2022-12-07T05:15:14;4.70;99.90
61841;DHT22;47773;53.174;6.614;2022-12-07T05:17:40;4.60;99.90
61841;DHT22;47773;53.174;6.614;2022-12-07T05:20:06;4.60;99.90
61841;DHT22;47773;53.174;6.614;2022-12-07T05:22:32;4.60;99.90
61841;DHT22;47773;53.174;6.614;2022-12-07T05:24:58;4.50;99.90
61841;DHT22;47773;53.174;6.614;2022-12-07T05:27:23;4.50;99.90
61841;DHT22;47773;53.174;6.614;2022-12-07T05:29:52;4.50;99.90
61841;DHT22;47773;53.174;6.614;2022-12-07T05:32:18;4.50;99.90
61841;DHT22;47773;53.174;6.614;2022-12-07T05:34:43;4.40;99.90
61841;DHT22;47773;53.174;6.614;2022-12-07T05:37:09;4.40;99.90
61841;DHT22;47773;53.174;6.614;2022-12-07T05:39:35;4.30;99.90
61841;DHT22;47773;53.174;6.614;2022-12-07T05:42:00;4.30;99.90
61841;DHT22;47773;53.174;6.614;2022-12-07T05:44:39;4.30;99.90
61841;DHT22;47773;53.174;6.614;2022-12-07T05:47:05;4.30;99.90
61841;DHT22;47773;53.174;6.614;2022-12-07T05:49:31;4.20;99.90
61841;DHT22;47773;53.174;6.614;2022-12-07T05:51:56;4.20;99.90
61841;DHT22;47773;53.174;6.614;2022-12-07T05:54:22;4.10;99.90
61841;DHT22;47773;53.174;6.614;2022-12-07T05:56:48;4.10;99.90
61841;DHT22;47773;53.174;6.614;2022-12-07T05:59:13;4.10;99.90
61841;DHT22;47773;53.174;6.614;2022-12-07T06:02:02;4.00;99.90
61841;DHT22;47773;53.174;6.614;2022-12-07T06:04:31;4.00;99.90
61841;DHT22;47773;53.174;6.614;2022-12-07T06:06:57;4.00;99.90
61841;DHT22;47773;53.174;6.614;2022-12-07T06:09:24;3.90;99.90
61841;DHT22;47773;53.174;6.614;2022-12-07T06:11:50;3.90;99.90
61841;DHT22;47773;53.174;6.614;2022-12-07T06:14:34;3.90;99.90
61841;DHT22;47773;53.174;6.614;2022-12-07T06:17:00;3.90;99.90
61841;DHT22;47773;53.174;6.614;2022-12-07T06:19:26;3.90;99.90
61841;DHT22;47773;53.174;6.614;2022-12-07T06:21:52;3.90;99.90
61841;DHT22;47773;53.174;6.614;2022-12-07T06:24:18;3.90;99.90
61841;DHT22;47773;53.174;6.614;2022-12-07T06:26:44;3.90;99.90
61841;DHT22;47773;53.174;6.614;2022-12-07T06:29:10;4.00;99.90
61841;DHT22;47773;53.174;6.614;2022-12-07T06:31:37;4.00;99.90
61841;DHT22;47773;53.174;6.614;2022-12-07T06:34:05;4.00;99.90
61841;DHT22;47773;53.174;6.614;2022-12-07T06:36:31;4.10;99.90
61841;DHT22;47773;53.174;6.614;2022-12-07T06:38:57;4.10;99.90
61841;DHT22;47773;53.174;6.614;2022-12-07T06:41:23;4.10;99.90
61841;DHT22;47773;53.174;6.614;2022-12-07T06:43:49;4.10;99.90
61841;DHT22;47773;53.174;6.614;2022-12-07T06:46:15;4.10;99.90
61841;DHT22;47773;53.174;6.614;2022-12-07T06:48:42;4.10;99.90
61841;DHT22;47773;53.174;6.614;2022-12-07T06:51:09;4.10;99.90
61841;DHT22;47773;53.174;6.614;2022-12-07T06:53:35;4.10;99.90
61841;DHT22;47773;53.174;6.614;2022-12-07T06:56:01;4.10;99.90
61841;DHT22;47773;53.174;6.614;2022-12-07T06:58:26;4.10;99.90
61841;DHT22;47773;53.174;6.614;2022-12-07T07:00:53;4.00;99.90
61841;DHT22;47773;53.174;6.614;2022-12-07T07:03:19;4.00;99.90
61841;DHT22;47773;53.174;6.614;2022-12-07T07:05:45;4.00;99.90
61841;DHT22;47773;53.174;6.614;2022-12-07T07:08:11;4.00;99.90
61841;DHT22;47773;53.174;6.614;2022-12-07T07:10:37;4.00;99.90
61841;DHT22;47773;53.174;6.614;2022-12-07T07:13:03;4.00;99.90
61841;DHT22;47773;53.174;6.614;2022-12-07T07:15:29;4.00;99.90
61841;DHT22;47773;53.174;6.614;2022-12-07T07:17:55;4.10;99.90
61841;DHT22;47773;53.174;6.614;2022-12-07T07:20:21;4.00;99.90
61841;DHT22;47773;53.174;6.614;2022-12-07T07:22:47;4.00;99.90
61841;DHT22;47773;53.174;6.614;2022-12-07T07:25:13;4.00;99.90
61841;DHT22;47773;53.174;6.614;2022-12-07T07:27:39;4.10;99.90
61841;DHT22;47773;53.174;6.614;2022-12-07T07:30:05;4.10;99.90
61841;DHT22;47773;53.174;6.614;2022-12-07T07:32:31;4.10;99.90
61841;DHT22;47773;53.174;6.614;2022-12-07T07:34:56;4.10;99.90
61841;DHT22;47773;53.174;6.614;2022-12-07T07:37:22;4.10;99.90
61841;DHT22;47773;53.174;6.614;2022-12-07T07:39:48;4.10;99.90
61841;DHT22;47773;53.174;6.614;2022-12-07T07:42:14;4.20;99.90
61841;DHT22;47773;53.174;6.614;2022-12-07T07:44:40;4.20;99.90
61841;DHT22;47773;53.174;6.614;2022-12-07T07:47:05;4.20;99.90
61841;DHT22;47773;53.174;6.614;2022-12-07T07:49:31;4.20;99.90
61841;DHT22;47773;53.174;6.614;2022-12-07T07:51:57;4.20;99.90
61841;DHT22;47773;53.174;6.614;2022-12-07T07:54:23;4.20;99.90
61841;DHT22;47773;53.174;6.614;2022-12-07T07:56:48;4.20;99.90
61841;DHT22;47773;53.174;6.614;2022-12-07T07:59:15;4.10;99.90
61841;DHT22;47773;53.174;6.614;2022-12-07T08:01:40;4.10;99.90
61841;DHT22;47773;53.174;6.614;2022-12-07T08:04:06;4.10;99.90
61841;DHT22;47773;53.174;6.614;2022-12-07T08:06:32;4.00;99.90
61841;DHT22;47773;53.174;6.614;2022-12-07T08:08:57;4.10;99.90
61841;DHT22;47773;53.174;6.614;2022-12-07T08:11:23;4.00;99.90
61841;DHT22;47773;53.174;6.614;2022-12-07T08:13:49;4.00;99.90
61841;DHT22;47773;53.174;6.614;2022-12-07T08:16:15;4.00;99.90
61841;DHT22;47773;53.174;6.614;2022-12-07T08:18:41;4.00;99.90
61841;DHT22;47773;53.174;6.614;2022-12-07T08:21:11;4.00;99.90
61841;DHT22;47773;53.174;6.614;2022-12-07T08:23:37;4.00;99.90
61841;DHT22;47773;53.174;6.614;2022-12-07T08:26:12;3.90;99.90
61841;DHT22;47773;53.174;6.614;2022-12-07T08:28:39;3.90;99.90
61841;DHT22;47773;53.174;6.614;2022-12-07T08:31:11;4.00;99.90
61841;DHT22;47773;53.174;6.614;2022-12-07T08:33:37;4.00;99.90
61841;DHT22;47773;53.174;6.614;2022-12-07T08:36:06;4.00;99.90
61841;DHT22;47773;53.174;6.614;2022-12-07T08:38:34;4.10;99.90
61841;DHT22;47773;53.174;6.614;2022-12-07T08:41:00;4.20;99.90
61841;DHT22;47773;53.174;6.614;2022-12-07T08:43:26;4.20;99.90
61841;DHT22;47773;53.174;6.614;2022-12-07T08:46:11;4.30;99.90
61841;DHT22;47773;53.174;6.614;2022-12-07T08:51:16;4.40;99.90
61841;DHT22;47773;53.174;6.614;2022-12-07T08:53:43;4.30;99.90
61841;DHT22;47773;53.174;6.614;2022-12-07T08:56:09;4.30;99.90
61841;DHT22;47773;53.174;6.614;2022-12-07T08:58:36;4.30;99.90
61841;DHT22;47773;53.174;6.614;2022-12-07T09:01:03;4.30;99.90
61841;DHT22;47773;53.174;6.614;2022-12-07T09:03:29;4.40;99.90
61841;DHT22;47773;53.174;6.614;2022-12-07T09:05:54;4.40;99.90
61841;DHT22;47773;53.174;6.614;2022-12-07T09:08:22;4.50;99.90
61841;DHT22;47773;53.174;6.614;2022-12-07T09:10:50;4.60;99.90
61841;DHT22;47773;53.174;6.614;2022-12-07T09:13:16;4.70;99.90
61841;DHT22;47773;53.174;6.614;2022-12-07T09:15:42;4.80;99.90
61841;DHT22;47773;53.174;6.614;2022-12-07T09:18:07;4.90;99.90
61841;DHT22;47773;53.174;6.614;2022-12-07T09:20:33;4.90;99.90
61841;DHT22;47773;53.174;6.614;2022-12-07T09:22:59;4.90;99.90
61841;DHT22;47773;53.174;6.614;2022-12-07T09:25:24;5.00;99.90
61841;DHT22;47773;53.174;6.614;2022-12-07T09:27:56;5.00;99.90
61841;DHT22;47773;53.174;6.614;2022-12-07T09:30:22;5.10;99.90
61841;DHT22;47773;53.174;6.614;2022-12-07T09:32:47;5.20;99.90
61841;DHT22;47773;53.174;6.614;2022-12-07T09:35:13;5.30;99.90
61841;DHT22;47773;53.174;6.614;2022-12-07T09:37:39;5.30;99.90
61841;DHT22;47773;53.174;6.614;2022-12-07T09:40:05;5.30;99.90
61841;DHT22;47773;53.174;6.614;2022-12-07T09:42:39;5.40;99.90
61841;DHT22;47773;53.174;6.614;2022-12-07T09:45:29;5.40;99.90
61841;DHT22;47773;53.174;6.614;2022-12-07T09:47:58;5.40;99.90
61841;DHT22;47773;53.174;6.614;2022-12-07T09:50:26;5.40;99.90
61841;DHT22;47773;53.174;6.614;2022-12-07T09:52:53;5.30;99.90
61841;DHT22;47773;53.174;6.614;2022-12-07T09:55:27;5.40;99.90
61841;DHT22;47773;53.174;6.614;2022-12-07T09:57:54;5.40;99.90
61841;DHT22;47773;53.174;6.614;2022-12-07T10:00:22;5.50;99.90
61841;DHT22;47773;53.174;6.614;2022-12-07T10:02:59;5.50;99.90
61841;DHT22;47773;53.174;6.614;2022-12-07T10:05:32;5.50;99.90
61841;DHT22;47773;53.174;6.614;2022-12-07T10:08:01;5.60;99.90
61841;DHT22;47773;53.174;6.614;2022-12-07T10:10:32;5.60;99.90
61841;DHT22;47773;53.174;6.614;2022-12-07T10:13:07;5.60;99.90
61841;DHT22;47773;53.174;6.614;2022-12-07T10:15:53;5.60;99.90
61841;DHT22;47773;53.174;6.614;2022-12-07T10:20:46;5.60;99.90
61841;DHT22;47773;53.174;6.614;2022-12-07T10:23:17;5.60;99.90
61841;DHT22;47773;53.174;6.614;2022-12-07T10:25:44;5.60;99.90
61841;DHT22;47773;53.174;6.614;2022-12-07T10:28:16;5.60;99.90
61841;DHT22;47773;53.174;6.614;2022-12-07T10:33:38;5.60;99.90
61841;DHT22;47773;53.174;6.614;2022-12-07T10:36:29;5.60;99.90
61841;DHT22;47773;53.174;6.614;2022-12-07T10:39:13;5.70;99.90
61841;DHT22;47773;53.174;6.614;2022-12-07T10:41:55;5.70;99.90
61841;DHT22;47773;53.174;6.614;2022-12-07T10:44:33;5.80;99.90
61841;DHT22;47773;53.174;6.614;2022-12-07T10:53:03;6.10;99.90
61841;DHT22;47773;53.174;6.614;2022-12-07T10:55:52;6.30;99.90
61841;DHT22;47773;53.174;6.614;2022-12-07T11:01:41;6.30;99.90
61841;DHT22;47773;53.174;6.614;2022-12-07T11:04:18;6.30;99.90
61841;DHT22;47773;53.174;6.614;2022-12-07T11:07:12;6.30;99.90
61841;DHT22;47773;53.174;6.614;2022-12-07T11:15:23;6.40;99.90
61841;DHT22;47773;53.174;6.614;2022-12-07T11:18:12;6.40;99.90
61841;DHT22;47773;53.174;6.614;2022-12-07T11:23:42;6.20;99.90
61841;DHT22;47773;53.174;6.614;2022-12-07T11:26:23;6.10;99.90
61841;DHT22;47773;53.174;6.614;2022-12-07T11:31:38;5.90;99.90
61841;DHT22;47773;53.174;6.614;2022-12-07T11:36:53;5.80;99.90
61841;DHT22;47773;53.174;6.614;2022-12-07T11:39:30;5.80;99.90
61841;DHT22;47773;53.174;6.614;2022-12-07T11:42:06;5.90;99.90
61841;DHT22;47773;53.174;6.614;2022-12-07T11:44:52;5.90;99.90
61841;DHT22;47773;53.174;6.614;2022-12-07T11:57:58;6.10;99.90
61841;DHT22;47773;53.174;6.614;2022-12-07T12:00:25;6.10;99.90
61841;DHT22;47773;53.174;6.614;2022-12-07T12:03:00;6.10;99.90
61841;DHT22;47773;53.174;6.614;2022-12-07T12:05:27;6.10;99.90
61841;DHT22;47773;53.174;6.614;2022-12-07T12:21:14;6.10;99.90
61841;DHT22;47773;53.174;6.614;2022-12-07T12:24:42;6.10;99.90
61841;DHT22;47773;53.174;6.614;2022-12-07T12:26:37;6.10;99.90
61841;DHT22;47773;53.174;6.614;2022-12-07T12:29:05;6.10;99.90
61841;DHT22;47773;53.174;6.614;2022-12-07T12:31:40;6.10;99.90
61841;DHT22;47773;53.174;6.614;2022-12-07T12:34:34;6.10;99.90
61841;DHT22;47773;53.174;6.614;2022-12-07T12:42:56;6.20;99.90
61841;DHT22;47773;53.174;6.614;2022-12-07T12:45:29;6.20;99.90
61841;DHT22;47773;53.174;6.614;2022-12-07T12:53:20;6.30;99.90
61841;DHT22;47773;53.174;6.614;2022-12-07T12:58:40;6.30;99.90
61841;DHT22;47773;53.174;6.614;2022-12-07T13:04:01;6.40;99.90
61841;DHT22;47773;53.174;6.614;2022-12-07T13:08:58;6.40;99.90
61841;DHT22;47773;53.174;6.614;2022-12-07T13:11:38;6.20;99.90
61841;DHT22;47773;53.174;6.614;2022-12-07T13:17:11;5.90;99.90
61841;DHT22;47773;53.174;6.614;2022-12-07T13:25:31;5.70;99.90
61841;DHT22;47773;53.174;6.614;2022-12-07T13:28:19;5.60;99.90
61841;DHT22;47773;53.174;6.614;2022-12-07T13:33:35;5.60;99.90
61841;DHT22;47773;53.174;6.614;2022-12-07T13:36:00;5.50;99.90
61841;DHT22;47773;53.174;6.614;2022-12-07T13:38:32;5.50;99.90
61841;DHT22;47773;53.174;6.614;2022-12-07T13:41:14;5.50;99.90
61841;DHT22;47773;53.174;6.614;2022-12-07T13:43:50;5.50;99.90
61841;DHT22;47773;53.174;6.614;2022-12-07T13:46:19;5.50;99.90
61841;DHT22;47773;53.174;6.614;2022-12-07T13:48:47;5.50;99.90
61841;DHT22;47773;53.174;6.614;2022-12-07T13:51:40;5.50;99.90
61841;DHT22;47773;53.174;6.614;2022-12-07T13:54:13;5.40;99.90
61841;DHT22;47773;53.174;6.614;2022-12-07T13:56:39;5.30;99.90
61841;DHT22;47773;53.174;6.614;2022-12-07T13:59:20;5.30;99.90
61841;DHT22;47773;53.174;6.614;2022-12-07T14:01:48;5.30;99.90
61841;DHT22;47773;53.174;6.614;2022-12-07T14:06:57;5.20;99.90
61841;DHT22;47773;53.174;6.614;2022-12-07T14:09:24;5.10;99.90
61841;DHT22;47773;53.174;6.614;2022-12-07T14:11:52;5.10;99.90
61841;DHT22;47773;53.174;6.614;2022-12-07T14:14:24;5.10;99.90
61841;DHT22;47773;53.174;6.614;2022-12-07T14:19:42;5.00;99.90
61841;DHT22;47773;53.174;6.614;2022-12-07T14:22:34;4.90;99.90
61841;DHT22;47773;53.174;6.614;2022-12-07T14:25:17;4.90;99.90
61841;DHT22;47773;53.174;6.614;2022-12-07T14:27:56;4.80;99.90
61841;DHT22;47773;53.174;6.614;2022-12-07T14:30:26;4.80;99.90
61841;DHT22;47773;53.174;6.614;2022-12-07T14:33:00;4.80;99.90
61841;DHT22;47773;53.174;6.614;2022-12-07T14:35:27;4.70;99.90
61841;DHT22;47773;53.174;6.614;2022-12-07T14:37:53;4.70;99.90
61841;DHT22;47773;53.174;6.614;2022-12-07T14:40:22;4.70;99.90
61841;DHT22;47773;53.174;6.614;2022-12-07T14:42:50;4.70;99.90
61841;DHT22;47773;53.174;6.614;2022-12-07T14:45:19;4.70;99.90
61841;DHT22;47773;53.174;6.614;2022-12-07T14:47:45;4.70;99.90
61841;DHT22;47773;53.174;6.614;2022-12-07T14:50:17;4.70;99.90
61841;DHT22;47773;53.174;6.614;2022-12-07T14:55:40;4.80;99.90
61841;DHT22;47773;53.174;6.614;2022-12-07T14:58:08;4.80;99.90
61841;DHT22;47773;53.174;6.614;2022-12-07T15:00:35;4.80;99.90
61841;DHT22;47773;53.174;6.614;2022-12-07T15:03:01;4.80;99.90
61841;DHT22;47773;53.174;6.614;2022-12-07T15:05:27;4.80;99.90
61841;DHT22;47773;53.174;6.614;2022-12-07T15:07:52;4.80;99.90
61841;DHT22;47773;53.174;6.614;2022-12-07T15:10:23;4.80;99.90
61841;DHT22;47773;53.174;6.614;2022-12-07T15:12:54;4.80;99.90
61841;DHT22;47773;53.174;6.614;2022-12-07T15:15:20;4.80;99.90
61841;DHT22;47773;53.174;6.614;2022-12-07T15:17:46;4.80;99.90
61841;DHT22;47773;53.174;6.614;2022-12-07T15:20:15;4.80;99.90
61841;DHT22;47773;53.174;6.614;2022-12-07T15:22:42;4.80;99.90
61841;DHT22;47773;53.174;6.614;2022-12-07T15:25:12;4.80;99.90
61841;DHT22;47773;53.174;6.614;2022-12-07T15:27:37;4.80;99.90
61841;DHT22;47773;53.174;6.614;2022-12-07T15:30:04;4.80;99.90
61841;DHT22;47773;53.174;6.614;2022-12-07T15:32:30;4.70;99.90
61841;DHT22;47773;53.174;6.614;2022-12-07T15:34:55;4.70;99.90
61841;DHT22;47773;53.174;6.614;2022-12-07T15:37:21;4.70;99.90
61841;DHT22;47773;53.174;6.614;2022-12-07T15:39:46;4.60;99.90
61841;DHT22;47773;53.174;6.614;2022-12-07T15:42:12;4.60;99.90
61841;DHT22;47773;53.174;6.614;2022-12-07T15:44:38;4.60;99.90
61841;DHT22;47773;53.174;6.614;2022-12-07T15:47:22;4.60;99.90
61841;DHT22;47773;53.174;6.614;2022-12-07T15:49:47;4.60;99.90
61841;DHT22;47773;53.174;6.614;2022-12-07T15:52:13;4.60;99.90
61841;DHT22;47773;53.174;6.614;2022-12-07T15:54:39;4.50;99.90
61841;DHT22;47773;53.174;6.614;2022-12-07T15:57:04;4.60;99.90
61841;DHT22;47773;53.174;6.614;2022-12-07T15:59:30;4.50;99.90
61841;DHT22;47773;53.174;6.614;2022-12-07T16:01:56;4.60;99.90
61841;DHT22;47773;53.174;6.614;2022-12-07T16:04:22;4.50;99.90
61841;DHT22;47773;53.174;6.614;2022-12-07T16:06:48;4.50;99.90
61841;DHT22;47773;53.174;6.614;2022-12-07T16:09:16;4.50;99.90
61841;DHT22;47773;53.174;6.614;2022-12-07T16:11:42;4.50;99.90
61841;DHT22;47773;53.174;6.614;2022-12-07T16:14:07;4.50;99.90
61841;DHT22;47773;53.174;6.614;2022-12-07T16:16:33;4.50;99.90
61841;DHT22;47773;53.174;6.614;2022-12-07T16:18:59;4.50;99.90
61841;DHT22;47773;53.174;6.614;2022-12-07T16:21:24;4.50;99.90
61841;DHT22;47773;53.174;6.614;2022-12-07T16:23:50;4.40;99.90
61841;DHT22;47773;53.174;6.614;2022-12-07T16:26:18;4.50;99.90
61841;DHT22;47773;53.174;6.614;2022-12-07T16:28:44;4.40;99.90
61841;DHT22;47773;53.174;6.614;2022-12-07T16:31:13;4.40;99.90
61841;DHT22;47773;53.174;6.614;2022-12-07T16:33:40;4.40;99.90
61841;DHT22;47773;53.174;6.614;2022-12-07T16:36:08;4.40;99.90
61841;DHT22;47773;53.174;6.614;2022-12-07T16:38:35;4.40;99.90
61841;DHT22;47773;53.174;6.614;2022-12-07T16:41:01;4.40;99.90
61841;DHT22;47773;53.174;6.614;2022-12-07T16:43:27;4.50;99.90
61841;DHT22;47773;53.174;6.614;2022-12-07T16:45:53;4.40;99.90
61841;DHT22;47773;53.174;6.614;2022-12-07T16:48:18;4.40;99.90
61841;DHT22;47773;53.174;6.614;2022-12-07T16:50:44;4.40;99.90
61841;DHT22;47773;53.174;6.614;2022-12-07T16:53:11;4.30;99.90
61841;DHT22;47773;53.174;6.614;2022-12-07T16:55:38;4.30;99.90
61841;DHT22;47773;53.174;6.614;2022-12-07T16:58:04;4.30;99.90
61841;DHT22;47773;53.174;6.614;2022-12-07T17:00:30;4.20;99.90
61841;DHT22;47773;53.174;6.614;2022-12-07T17:02:55;4.20;99.90
61841;DHT22;47773;53.174;6.614;2022-12-07T17:05:21;4.20;99.90
61841;DHT22;47773;53.174;6.614;2022-12-07T17:07:47;4.20;99.90
61841;DHT22;47773;53.174;6.614;2022-12-07T17:10:12;4.20;99.90
61841;DHT22;47773;53.174;6.614;2022-12-07T17:12:38;4.10;99.90
61841;DHT22;47773;53.174;6.614;2022-12-07T17:15:04;4.20;99.90
61841;DHT22;47773;53.174;6.614;2022-12-07T17:17:46;4.10;99.90
61841;DHT22;47773;53.174;6.614;2022-12-07T17:20:12;4.10;99.90
61841;DHT22;47773;53.174;6.614;2022-12-07T17:22:38;4.00;99.90
61841;DHT22;47773;53.174;6.614;2022-12-07T17:25:05;4.00;99.90
61841;DHT22;47773;53.174;6.614;2022-12-07T17:27:31;4.00;99.90
61841;DHT22;47773;53.174;6.614;2022-12-07T17:29:57;4.00;99.90
61841;DHT22;47773;53.174;6.614;2022-12-07T17:32:22;4.00;99.90
61841;DHT22;47773;53.174;6.614;2022-12-07T17:34:48;4.00;99.90
61841;DHT22;47773;53.174;6.614;2022-12-07T17:37:14;4.00;99.90
61841;DHT22;47773;53.174;6.614;2022-12-07T17:39:39;4.00;99.90
61841;DHT22;47773;53.174;6.614;2022-12-07T17:42:05;4.10;99.90
61841;DHT22;47773;53.174;6.614;2022-12-07T17:44:49;4.10;99.90
61841;DHT22;47773;53.174;6.614;2022-12-07T17:47:15;4.10;99.90
61841;DHT22;47773;53.174;6.614;2022-12-07T17:49:43;4.10;99.90
61841;DHT22;47773;53.174;6.614;2022-12-07T17:52:11;4.10;99.90
61841;DHT22;47773;53.174;6.614;2022-12-07T17:54:55;4.20;99.90
61841;DHT22;47773;53.174;6.614;2022-12-07T17:57:21;4.10;99.90
61841;DHT22;47773;53.174;6.614;2022-12-07T17:59:46;4.10;99.90
61841;DHT22;47773;53.174;6.614;2022-12-07T18:02:12;4.20;99.90
61841;DHT22;47773;53.174;6.614;2022-12-07T18:04:38;4.20;99.90
61841;DHT22;47773;53.174;6.614;2022-12-07T18:07:06;4.20;99.90